createdAt,value
2019-04-21T00:00:11.832Z,99.90
2019-04-21T00:02:44.281Z,99.40
2019-04-21T00:05:33.453Z,99.90
2019-04-21T00:08:10.854Z,99.90
2019-04-21T00:10:40.104Z,99.90
2019-04-21T00:13:05.054Z,99.90
2019-04-21T00:15:29.988Z,99.90
2019-04-21T00:17:58.826Z,99.90
2019-04-21T00:20:37.081Z,99.90
2019-04-21T00:23:19.854Z,99.90
2019-04-21T00:25:42.907Z,99.90
2019-04-21T00:28:28.966Z,99.90
2019-04-21T00:30:59.082Z,99.90
2019-04-21T00:33:13.904Z,99.90
2019-04-21T00:35:51.133Z,99.90
2019-04-21T00:38:42.699Z,99.90
2019-04-21T00:41:08.908Z,99.90
2019-04-21T00:43:32.921Z,99.90
2019-04-21T00:45:59.944Z,99.90
2019-04-21T00:48:45.658Z,99.90
2019-04-21T00:51:40.699Z,99.90
2019-04-21T00:54:03.961Z,99.90
2019-04-21T00:56:28.473Z,99.90
2019-04-21T00:59:07.117Z,99.90
2019-04-21T01:01:33.122Z,99.90
2019-04-21T01:04:04.403Z,99.90
2019-04-21T01:09:07.669Z,99.90
2019-04-21T01:11:44.835Z,99.90
2019-04-21T01:14:27.923Z,99.90
2019-04-21T01:16:45.368Z,99.90
2019-04-21T01:19:15.735Z,99.90
2019-04-21T01:21:27.445Z,99.90
2019-04-21T01:24:07.744Z,99.90
2019-04-21T01:26:42.630Z,99.90
2019-04-21T01:29:22.682Z,99.90
2019-04-21T01:31:48.048Z,99.90
2019-04-21T01:34:29.042Z,99.90
2019-04-21T01:36:54.245Z,99.90
2019-04-21T01:39:34.497Z,99.90
2019-04-21T01:42:03.560Z,99.90
2019-04-21T01:44:39.122Z,99.90
2019-04-21T01:46:58.754Z,99.90
2019-04-21T01:49:29.660Z,99.90
2019-04-21T01:52:26.934Z,99.90
2019-04-21T01:54:51.998Z,99.90
2019-04-21T01:57:27.945Z,99.90
2019-04-21T01:59:52.784Z,99.90
2019-04-21T02:02:30.374Z,99.90
2019-04-21T02:05:03.181Z,99.90
2019-04-21T02:07:34.245Z,99.90
2019-04-21T02:10:07.110Z,99.90
2019-04-21T02:12:40.603Z,99.90
2019-04-21T02:15:12.639Z,99.90
2019-04-21T02:17:34.305Z,99.90
2019-04-21T02:20:02.802Z,99.90
2019-04-21T02:22:59.176Z,99.90
2019-04-21T02:25:18.335Z,99.90
2019-04-21T02:27:51.442Z,99.90
2019-04-21T02:30:29.538Z,99.90
2019-04-21T02:33:03.780Z,99.90
2019-04-21T02:35:51.033Z,99.90
2019-04-21T02:38:11.860Z,99.90
2019-04-21T02:40:40.494Z,99.90
2019-04-21T02:43:13.456Z,99.90
2019-04-21T02:45:43.365Z,99.90
2019-04-21T02:48:26.053Z,99.90
2019-04-21T02:50:51.175Z,99.90
2019-04-21T02:53:22.766Z,99.90
2019-04-21T02:55:44.064Z,99.90
2019-04-21T02:58:31.626Z,99.90
2019-04-21T03:00:57.242Z,99.90
2019-04-21T03:03:36.330Z,99.90
2019-04-21T03:06:20.692Z,99.90
2019-04-21T03:11:14.512Z,99.90
2019-04-21T03:14:01.062Z,99.90
2019-04-21T03:24:05.305Z,99.90
2019-04-21T03:26:36.389Z,99.90
2019-04-21T03:29:12.007Z,99.90
2019-04-21T03:32:04.435Z,99.90
2019-04-21T03:39:11.386Z,99.90
2019-04-21T03:42:04.478Z,99.90
2019-04-21T03:44:26.673Z,99.90
2019-04-21T03:46:48.021Z,99.90
2019-04-21T03:49:36.477Z,99.90
2019-04-21T03:51:56.290Z,99.90
2019-04-21T03:54:26.387Z,99.90
2019-04-21T03:57:08.838Z,99.90
2019-04-21T03:59:24.668Z,99.90
2019-04-21T04:02:18.210Z,99.90
2019-04-21T04:04:53.460Z,99.90
2019-04-21T04:07:44.088Z,99.90
2019-04-21T04:10:07.729Z,99.90
2019-04-21T04:15:12.345Z,99.90
2019-04-21T04:17:40.406Z,99.90
2019-04-21T04:20:22.925Z,99.90
2019-04-21T04:22:55.329Z,99.90
2019-04-21T04:25:22.489Z,99.90
2019-04-21T04:28:00.162Z,99.90
2019-04-21T04:30:27.657Z,99.90
2019-04-21T04:32:51.896Z,99.90
2019-04-21T04:37:55.946Z,99.90
2019-04-21T04:40:50.823Z,99.90
2019-04-21T04:53:30.991Z,99.90
2019-04-21T04:58:56.720Z,99.90
2019-04-21T05:03:24.226Z,99.90
2019-04-21T05:09:03.494Z,99.90
2019-04-21T05:14:02.623Z,99.90
2019-04-21T05:21:34.740Z,99.90
2019-04-21T05:23:54.004Z,99.90
2019-04-21T05:26:17.134Z,99.90
2019-04-21T05:28:50.967Z,99.90
2019-04-21T05:31:32.780Z,99.90
2019-04-21T05:34:06.945Z,99.90
2019-04-21T05:36:48.968Z,99.90
2019-04-21T05:39:30.262Z,99.90
2019-04-21T05:41:54.197Z,99.90
2019-04-21T05:44:59.851Z,99.90
2019-04-21T05:47:20.825Z,99.90
2019-04-21T05:49:40.046Z,99.90
2019-04-21T05:52:08.131Z,99.90
2019-04-21T05:54:55.675Z,99.90
2019-04-21T05:57:15.618Z,99.90
2019-04-21T05:59:51.488Z,99.90
2019-04-21T06:02:22.250Z,99.90
2019-04-21T06:07:30.288Z,99.90
2019-04-21T06:10:02.814Z,99.90
2019-04-21T06:12:38.220Z,99.90
2019-04-21T06:15:01.716Z,99.90
2019-04-21T06:17:36.695Z,99.90
2019-04-21T06:20:07.608Z,99.90
2019-04-21T06:22:39.700Z,99.90
2019-04-21T06:25:31.629Z,99.90
2019-04-21T06:27:39.003Z,99.90
2019-04-21T06:30:13.454Z,99.90
2019-04-21T06:35:52.975Z,99.90
2019-04-21T06:38:19.429Z,99.90
2019-04-21T06:40:46.262Z,99.90
2019-04-21T06:43:22.803Z,99.90
2019-04-21T06:45:51.121Z,99.90
2019-04-21T06:48:18.686Z,99.90
2019-04-21T06:50:52.433Z,99.90
2019-04-21T06:53:23.790Z,99.90
2019-04-21T06:55:43.524Z,99.90
2019-04-21T06:58:18.390Z,99.90
2019-04-21T07:00:47.658Z,99.90
2019-04-21T07:03:32.306Z,99.90
2019-04-21T07:06:03.435Z,99.90
2019-04-21T07:08:34.558Z,99.90
2019-04-21T07:11:06.701Z,99.90
2019-04-21T07:13:30.881Z,99.90
2019-04-21T07:16:12.035Z,99.90
2019-04-21T07:18:42.905Z,99.90
2019-04-21T07:21:08.269Z,97.10
2019-04-21T07:23:45.859Z,96.90
2019-04-21T07:26:15.669Z,96.70
2019-04-21T07:28:49.746Z,94.70
2019-04-21T07:31:22.482Z,94.30
2019-04-21T07:36:33.530Z,93.30
2019-04-21T07:38:49.753Z,92.60
2019-04-21T07:41:20.088Z,95.10
2019-04-21T07:43:53.380Z,93.30
2019-04-21T07:46:25.612Z,93.60
2019-04-21T07:49:08.034Z,93.00
2019-04-21T07:51:54.899Z,92.30
2019-04-21T07:54:29.120Z,91.40
2019-04-21T07:56:36.204Z,90.70
2019-04-21T07:59:31.565Z,90.30
2019-04-21T08:01:56.373Z,90.10
2019-04-21T08:04:49.618Z,89.80
2019-04-21T08:07:21.914Z,90.40
2019-04-21T08:09:47.274Z,90.40
2019-04-21T08:12:20.272Z,89.50
2019-04-21T08:15:03.161Z,86.70
2019-04-21T08:17:24.165Z,82.80
2019-04-21T08:19:56.056Z,82.10
2019-04-21T08:22:32.133Z,81.50
2019-04-21T08:25:02.821Z,80.60
2019-04-21T08:27:36.789Z,76.10
2019-04-21T08:30:09.448Z,73.60
2019-04-21T08:32:54.001Z,71.60
2019-04-21T08:37:40.124Z,73.60
2019-04-21T08:40:17.710Z,72.10
2019-04-21T08:42:44.762Z,72.80
2019-04-21T08:45:25.836Z,71.90
2019-04-21T08:47:55.286Z,70.00
2019-04-21T08:50:21.946Z,72.60
2019-04-21T08:53:04.179Z,74.60
2019-04-21T08:55:31.813Z,72.00
2019-04-21T08:58:31.796Z,74.60
2019-04-21T09:01:10.592Z,73.20
2019-04-21T09:03:56.683Z,72.50
2019-04-21T09:06:40.293Z,76.20
2019-04-21T09:08:57.783Z,73.30
2019-04-21T09:11:22.674Z,69.40
2019-04-21T09:13:54.681Z,66.90
2019-04-21T09:16:27.978Z,69.30
2019-04-21T09:18:54.050Z,68.30
2019-04-21T09:21:49.919Z,63.50
2019-04-21T09:24:04.537Z,63.40
2019-04-21T09:26:37.003Z,59.20
2019-04-21T09:29:00.378Z,55.50
2019-04-21T09:31:25.949Z,53.70
2019-04-21T09:33:57.285Z,54.40
2019-04-21T09:36:33.414Z,54.10
2019-04-21T09:39:06.623Z,52.80
2019-04-21T09:41:29.613Z,53.90
2019-04-21T09:44:01.247Z,54.50
2019-04-21T09:46:35.494Z,53.60
2019-04-21T09:49:07.403Z,54.20
2019-04-21T09:51:34.668Z,53.60
2019-04-21T09:54:11.596Z,53.50
2019-04-21T09:56:45.578Z,53.10
2019-04-21T09:59:18.014Z,56.40
2019-04-21T10:01:55.992Z,55.30
2019-04-21T10:04:12.072Z,55.30
2019-04-21T10:06:43.179Z,54.50
2019-04-21T10:09:17.371Z,51.30
2019-04-21T10:11:45.942Z,52.50
2019-04-21T10:14:17.554Z,53.50
2019-04-21T10:16:58.089Z,51.80
2019-04-21T10:19:27.500Z,49.20
2019-04-21T10:21:59.529Z,48.90
2019-04-21T10:24:28.746Z,47.60
2019-04-21T10:26:58.972Z,48.50
2019-04-21T10:29:31.272Z,49.20
2019-04-21T10:32:01.534Z,48.50
2019-04-21T10:34:31.506Z,48.40
2019-04-21T10:37:01.370Z,49.90
2019-04-21T10:39:31.560Z,49.10
2019-04-21T10:42:05.713Z,48.50
2019-04-21T10:44:36.769Z,48.10
2019-04-21T10:47:06.939Z,49.80
2019-04-21T10:49:40.380Z,48.60
2019-04-21T10:52:17.761Z,48.00
2019-04-21T10:55:06.917Z,47.60
2019-04-21T10:57:20.525Z,50.50
2019-04-21T10:59:52.731Z,47.90
2019-04-21T11:02:23.167Z,46.10
2019-04-21T11:05:04.874Z,45.80
2019-04-21T11:07:58.902Z,46.20
2019-04-21T11:10:18.291Z,46.20
2019-04-21T11:12:48.156Z,44.50
2019-04-21T11:15:19.240Z,44.90
2019-04-21T11:17:50.531Z,44.10
2019-04-21T11:20:20.516Z,43.80
2019-04-21T11:22:51.291Z,43.70
2019-04-21T11:25:22.048Z,42.10
2019-04-21T11:27:53.159Z,42.50
2019-04-21T11:30:23.983Z,41.20
2019-04-21T11:32:55.164Z,44.40
2019-04-21T11:35:27.545Z,42.70
2019-04-21T11:38:06.092Z,44.20
2019-04-21T11:40:31.886Z,41.40
2019-04-21T11:43:02.163Z,41.90
2019-04-21T11:45:34.801Z,42.90
2019-04-21T11:48:08.203Z,40.60
2019-04-21T11:50:39.125Z,41.40
2019-04-21T11:53:08.850Z,40.90
2019-04-21T11:55:43.226Z,40.80
2019-04-21T11:58:10.022Z,40.30
2019-04-21T12:00:40.234Z,40.40
2019-04-21T12:03:12.391Z,40.80
2019-04-21T12:05:41.671Z,39.70
2019-04-21T12:08:23.096Z,36.90
2019-04-21T12:10:42.959Z,38.20
2019-04-21T12:13:14.065Z,39.10
2019-04-21T12:15:45.072Z,36.80
2019-04-21T12:18:15.547Z,36.90
2019-04-21T12:20:45.454Z,38.10
2019-04-21T12:23:16.241Z,37.40
2019-04-21T12:25:49.299Z,38.90
2019-04-21T12:28:19.694Z,37.50
2019-04-21T12:30:51.684Z,37.50
2019-04-21T12:33:38.152Z,38.10
2019-04-21T12:36:09.345Z,36.90
2019-04-21T12:38:46.981Z,37.70
2019-04-21T12:41:13.211Z,35.50
2019-04-21T12:43:42.835Z,35.60
2019-04-21T12:46:13.914Z,35.90
2019-04-21T12:48:44.235Z,35.70
2019-04-21T12:51:15.461Z,36.20
2019-04-21T12:53:45.633Z,35.20
2019-04-21T12:56:15.765Z,35.60
2019-04-21T12:58:47.116Z,36.00
2019-04-21T13:01:16.967Z,35.90
2019-04-21T13:03:48.005Z,35.60
2019-04-21T13:06:17.718Z,35.70
2019-04-21T13:08:54.487Z,35.20
2019-04-21T13:11:19.236Z,35.50
2019-04-21T13:13:49.885Z,31.50
2019-04-21T13:16:21.163Z,30.60
2019-04-21T13:18:51.206Z,29.80
2019-04-21T13:21:22.340Z,27.90
2019-04-21T13:23:52.766Z,26.70
2019-04-21T13:26:35.585Z,27.90
2019-04-21T13:28:54.243Z,27.80
2019-04-21T13:31:24.547Z,29.30
2019-04-21T13:33:55.660Z,30.90
2019-04-21T13:36:25.777Z,33.30
2019-04-21T13:39:33.058Z,35.30
2019-04-21T13:41:47.417Z,35.60
2019-04-21T13:44:15.606Z,35.10
2019-04-21T13:46:47.232Z,30.40
2019-04-21T13:49:17.365Z,28.20
2019-04-21T13:51:47.996Z,27.90
2019-04-21T13:54:18.138Z,27.70
2019-04-21T13:56:47.835Z,26.60
2019-04-21T13:59:18.289Z,27.40
2019-04-21T14:01:48.136Z,27.50
2019-04-21T14:04:17.894Z,27.80
2019-04-21T14:06:48.037Z,27.10
2019-04-21T14:09:19.847Z,26.40
2019-04-21T14:11:52.489Z,26.10
2019-04-21T14:14:21.018Z,25.70
2019-04-21T14:16:51.987Z,25.20
2019-04-21T14:19:21.888Z,25.00
2019-04-21T14:21:53.095Z,25.00
2019-04-21T14:24:22.958Z,24.60
2019-04-21T14:26:52.621Z,24.90
2019-04-21T14:29:23.560Z,25.30
2019-04-21T14:31:53.553Z,26.20
2019-04-21T14:34:23.871Z,25.40
2019-04-21T14:36:55.013Z,25.00
2019-04-21T14:39:26.270Z,23.80
2019-04-21T14:41:56.175Z,24.00
2019-04-21T14:44:27.113Z,23.50
2019-04-21T14:47:03.010Z,23.50
2019-04-21T14:49:37.423Z,23.00
2019-04-21T14:52:15.023Z,23.10
2019-04-21T14:54:49.321Z,22.60
2019-04-21T14:57:21.221Z,23.20
2019-04-21T14:59:51.179Z,23.10
2019-04-21T15:02:22.320Z,23.50
2019-04-21T15:04:53.510Z,23.40
2019-04-21T15:07:25.422Z,23.80
2019-04-21T15:10:04.419Z,24.20
2019-04-21T15:12:27.839Z,25.00
2019-04-21T15:14:58.170Z,25.50
2019-04-21T15:17:29.396Z,24.90
2019-04-21T15:20:08.022Z,25.70
2019-04-21T15:22:32.339Z,26.30
2019-04-21T15:25:02.825Z,25.70
2019-04-21T15:27:32.850Z,24.10
2019-04-21T15:30:02.944Z,24.60
2019-04-21T15:32:32.818Z,24.40
2019-04-21T15:35:04.034Z,26.10
2019-04-21T15:37:33.934Z,26.40
2019-04-21T15:40:15.004Z,27.80
2019-04-21T15:42:36.895Z,27.80
2019-04-21T15:45:08.430Z,27.70
2019-04-21T15:47:38.308Z,27.30
2019-04-21T15:50:12.619Z,26.00
2019-04-21T15:52:40.247Z,26.70
2019-04-21T15:55:18.834Z,27.00
2019-04-21T15:58:06.896Z,27.50
2019-04-21T16:00:42.621Z,26.80
2019-04-21T16:03:12.967Z,27.90
2019-04-21T16:05:42.723Z,29.10
2019-04-21T16:08:13.897Z,31.10
2019-04-21T16:10:52.146Z,32.40
2019-04-21T16:13:16.054Z,33.80
2019-04-21T16:15:46.320Z,34.10
2019-04-21T16:18:16.279Z,35.30
2019-04-21T16:20:46.007Z,35.60
2019-04-21T16:23:15.666Z,36.50
2019-04-21T16:25:46.552Z,36.70
2019-04-21T16:28:17.308Z,37.60
2019-04-21T16:30:48.789Z,37.00
2019-04-21T16:33:18.866Z,33.80
2019-04-21T16:35:49.535Z,32.70
2019-04-21T16:38:19.725Z,32.50
2019-04-21T16:40:56.225Z,33.90
2019-04-21T16:43:20.972Z,34.10
2019-04-21T16:45:52.904Z,35.20
2019-04-21T16:48:23.311Z,35.60
2019-04-21T16:50:53.227Z,35.30
2019-04-21T16:53:37.736Z,35.30
2019-04-21T16:56:15.282Z,35.80
2019-04-21T16:58:46.772Z,36.30
2019-04-21T17:01:25.701Z,35.10
2019-04-21T17:03:55.378Z,35.20
2019-04-21T17:06:29.231Z,36.80
2019-04-21T17:08:59.166Z,38.00
2019-04-21T17:11:34.683Z,37.20
2019-04-21T17:14:01.373Z,38.10
2019-04-21T17:19:13.630Z,38.70
2019-04-21T17:21:34.215Z,60.30
2019-04-21T17:24:04.489Z,83.90
2019-04-21T17:31:37.200Z,49.70
2019-04-21T17:39:13.038Z,41.80
2019-04-21T17:41:59.173Z,60.20
2019-04-21T17:44:15.113Z,56.30
2019-04-21T17:46:54.035Z,43.90
2019-04-21T17:49:18.871Z,60.70
2019-04-21T17:51:55.600Z,43.90
2019-04-21T17:54:33.265Z,61.30
2019-04-21T17:57:16.541Z,64.80
2019-04-21T17:59:58.391Z,45.30
2019-04-21T18:02:17.518Z,53.40
2019-04-21T18:04:49.626Z,74.20
2019-04-21T18:07:21.571Z,47.00
2019-04-21T18:10:00.937Z,46.10
2019-04-21T18:12:28.073Z,47.00
2019-04-21T18:15:02.061Z,47.30
2019-04-21T18:17:22.526Z,68.30
2019-04-21T18:22:38.622Z,48.10
2019-04-21T18:25:13.748Z,83.80
2019-04-21T18:27:40.792Z,58.90
2019-04-21T18:30:16.430Z,53.70
2019-04-21T18:32:48.184Z,47.60
2019-04-21T18:35:20.889Z,48.10
2019-04-21T18:38:04.531Z,47.30
2019-04-21T18:40:32.967Z,49.30
2019-04-21T18:43:38.216Z,70.00
2019-04-21T18:48:24.709Z,54.20
2019-04-21T18:51:05.776Z,54.70
2019-04-21T18:53:46.973Z,53.60
2019-04-21T18:56:06.476Z,54.00
2019-04-21T18:58:36.011Z,55.30
2019-04-21T19:01:12.757Z,55.60
2019-04-21T19:03:42.993Z,55.10
2019-04-21T19:06:16.442Z,62.50
2019-04-21T19:09:08.297Z,55.80
2019-04-21T19:11:28.209Z,80.90
2019-04-21T19:14:19.717Z,82.90
2019-04-21T19:17:27.602Z,80.70
2019-04-21T19:21:40.374Z,56.80
2019-04-21T19:24:25.958Z,57.70
2019-04-21T19:26:52.453Z,57.60
2019-04-21T19:29:23.967Z,57.80
2019-04-21T19:34:14.308Z,58.80
2019-04-21T19:36:48.809Z,59.50
2019-04-21T19:39:23.281Z,60.20
2019-04-21T19:41:58.616Z,61.70
2019-04-21T19:44:36.573Z,63.00
2019-04-21T19:47:03.918Z,65.00
2019-04-21T19:49:43.812Z,66.40
2019-04-21T19:51:56.510Z,68.80
2019-04-21T19:54:31.629Z,69.00
2019-04-21T19:56:53.663Z,72.00
2019-04-21T19:59:32.521Z,75.80
2019-04-21T20:01:56.206Z,79.20
2019-04-21T20:04:34.087Z,81.90
2019-04-21T20:07:10.303Z,85.60
2019-04-21T20:09:46.447Z,90.00
2019-04-21T20:12:18.471Z,92.60
2019-04-21T20:14:59.114Z,95.50
2019-04-21T20:17:18.990Z,99.40
2019-04-21T20:19:38.419Z,99.90
2019-04-21T20:22:09.367Z,99.90
2019-04-21T20:24:40.082Z,99.90
2019-04-21T20:27:17.699Z,99.90
2019-04-21T20:30:02.184Z,99.90
2019-04-21T20:32:35.190Z,99.90
2019-04-21T20:35:07.982Z,99.90
2019-04-21T20:37:32.145Z,99.90
2019-04-21T20:39:59.839Z,99.90
2019-04-21T20:42:36.274Z,99.90
2019-04-21T20:45:28.990Z,99.90
2019-04-21T20:47:35.243Z,99.90
2019-04-21T20:50:09.418Z,99.90
2019-04-21T20:52:48.022Z,99.90
2019-04-21T20:55:11.941Z,99.90
2019-04-21T20:57:46.478Z,99.90
2019-04-21T21:00:23.340Z,99.90
2019-04-21T21:03:00.907Z,99.90
2019-04-21T21:05:27.455Z,99.90
2019-04-21T21:08:08.644Z,99.90
2019-04-21T21:10:34.717Z,99.90
2019-04-21T21:13:14.531Z,99.90
2019-04-21T21:15:43.930Z,99.90
2019-04-21T21:18:15.572Z,96.60
2019-04-21T21:20:45.103Z,99.90
2019-04-21T21:26:03.135Z,99.90
2019-04-21T21:28:09.222Z,99.60
2019-04-21T21:33:17.128Z,97.60
2019-04-21T21:35:49.404Z,99.90
2019-04-21T21:38:25.539Z,88.60
2019-04-21T21:40:54.392Z,87.90
2019-04-21T21:45:50.058Z,87.90
2019-04-21T21:48:32.090Z,86.10
2019-04-21T21:51:02.015Z,86.70
2019-04-21T21:53:25.510Z,90.30
2019-04-21T21:55:54.451Z,92.40
2019-04-21T21:58:27.435Z,93.70
2019-04-21T22:01:02.343Z,94.90
2019-04-21T22:03:34.188Z,96.00
2019-04-21T22:06:06.153Z,96.40
2019-04-21T22:08:32.463Z,97.00
2019-04-21T22:11:03.292Z,95.80
2019-04-21T22:13:46.172Z,96.00
2019-04-21T22:16:10.620Z,96.20
2019-04-21T22:19:02.638Z,95.20
2019-04-21T22:21:18.854Z,94.90
2019-04-21T22:23:51.513Z,95.20
2019-04-21T22:26:13.376Z,95.30
2019-04-21T22:28:43.702Z,97.40
2019-04-21T22:31:20.671Z,98.30
2019-04-21T22:33:48.286Z,99.00
2019-04-21T22:36:31.285Z,98.00
2019-04-21T22:39:09.200Z,97.00
2019-04-21T22:41:28.928Z,96.70
2019-04-21T22:43:55.185Z,98.20
2019-04-21T22:46:24.407Z,99.60
2019-04-21T22:49:00.329Z,99.90
2019-04-21T22:51:35.360Z,99.90
2019-04-21T22:53:59.967Z,99.90
2019-04-21T22:56:33.609Z,99.90
2019-04-21T22:59:08.603Z,99.90
2019-04-21T23:01:40.449Z,99.90
2019-04-21T23:04:07.170Z,99.90
2019-04-21T23:06:39.628Z,99.90
2019-04-21T23:09:11.055Z,99.90
2019-04-21T23:11:45.418Z,99.90
2019-04-21T23:14:15.378Z,99.90
2019-04-21T23:19:29.355Z,99.90
2019-04-21T23:22:04.103Z,99.90
2019-04-21T23:24:40.127Z,99.90
2019-04-21T23:26:59.780Z,99.90
2019-04-21T23:29:50.783Z,99.90
2019-04-21T23:32:12.356Z,99.90
2019-04-21T23:37:06.724Z,97.60
2019-04-21T23:39:32.776Z,90.50
2019-04-21T23:42:03.141Z,99.90
2019-04-21T23:44:42.852Z,89.70
2019-04-21T23:47:08.624Z,85.30
2019-04-21T23:49:48.247Z,97.50
2019-04-21T23:52:10.948Z,86.90
2019-04-21T23:54:40.975Z,86.70
2019-04-21T23:57:16.235Z,87.70
2019-04-21T23:59:46.905Z,90.10
